createdAt,value
2023-05-08T00:02:04.061Z,98764.16
2023-05-08T00:04:32.538Z,98777.53
2023-05-08T00:07:00.956Z,98779.41
2023-05-08T00:09:29.390Z,98773.75
2023-05-08T00:11:58.243Z,98764.16
2023-05-08T00:14:26.709Z,98773.56
2023-05-08T00:16:55.138Z,98773.94
2023-05-08T00:19:23.811Z,98781.09
2023-05-08T00:21:53.422Z,98803.16
2023-05-08T00:24:21.789Z,98806.91
2023-05-08T00:26:50.169Z,98811.25
2023-05-08T00:29:18.585Z,98815.06
2023-05-08T00:31:47.012Z,98812.97
2023-05-08T00:34:15.466Z,98831.63
2023-05-08T00:36:43.839Z,98832.59
2023-05-08T00:39:12.205Z,98859.72
2023-05-08T00:41:40.672Z,98860.47
2023-05-08T00:44:09.373Z,98876.88
2023-05-08T00:46:38.287Z,98883.28
2023-05-08T00:49:08.053Z,98887.63
2023-05-08T00:51:36.498Z,98899.88
2023-05-08T00:54:05.409Z,98908.56
2023-05-08T00:56:35.343Z,98911.59
2023-05-08T00:59:05.626Z,98919.16
2023-05-08T01:01:36.043Z,98934.44
2023-05-08T01:04:05.862Z,98936.91
2023-05-08T01:06:35.222Z,98950.69
2023-05-08T01:09:04.513Z,98962.19
2023-05-08T01:11:39.506Z,98965.94
2023-05-08T01:14:31.148Z,98968.78
2023-05-08T01:17:24.631Z,98975.00
2023-05-08T01:20:18.617Z,98989.16
2023-05-08T01:22:53.114Z,98991.78
2023-05-08T01:25:36.772Z,99001.59
2023-05-08T01:28:33.056Z,99014.97
2023-05-08T01:31:14.085Z,99026.66
2023-05-08T01:34:16.238Z,99031.94
2023-05-08T01:36:52.834Z,99043.56
2023-05-08T01:39:41.353Z,99059.97
2023-05-08T01:42:40.355Z,99069.72
2023-05-08T01:45:15.209Z,99080.44
2023-05-08T01:47:45.473Z,99084.69
2023-05-08T01:50:23.329Z,99111.78
2023-05-08T01:52:58.977Z,99103.66
2023-05-08T01:55:36.862Z,99104.94
2023-05-08T01:58:09.698Z,99115.25
2023-05-08T02:00:41.843Z,99138.19
2023-05-08T02:03:12.108Z,99151.91
2023-05-08T02:05:42.544Z,99155.81
2023-05-08T02:08:13.977Z,99166.72
2023-05-08T02:10:43.769Z,99170.44
2023-05-08T02:13:14.566Z,99181.34
2023-05-08T02:15:47.737Z,99192.75
2023-05-08T02:18:20.062Z,99198.75
2023-05-08T02:20:51.499Z,99209.84
2023-05-08T02:23:22.171Z,99194.75
2023-05-08T02:25:52.599Z,99213.00
2023-05-08T02:28:21.897Z,99219.19
2023-05-08T02:30:52.871Z,99223.53
2023-05-08T02:33:22.584Z,99224.09
2023-05-08T02:35:52.941Z,99220.38
2023-05-08T02:38:25.002Z,99222.31
2023-05-08T02:41:02.036Z,99227.59
2023-05-08T02:43:36.754Z,99222.97
2023-05-08T02:46:11.078Z,99224.13
2023-05-08T02:48:52.942Z,99216.25
2023-05-08T02:51:39.332Z,99226.91
2023-05-08T02:54:25.597Z,99212.84
2023-05-08T02:57:22.581Z,99210.28
2023-05-08T03:00:02.416Z,99213.19
2023-05-08T03:02:45.189Z,99215.09
2023-05-08T03:05:25.385Z,99190.06
2023-05-08T03:07:57.048Z,99200.84
2023-05-08T03:10:33.518Z,99218.88
2023-05-08T03:13:06.190Z,99231.66
2023-05-08T03:16:00.068Z,99238.63
2023-05-08T03:18:34.879Z,99226.56
2023-05-08T03:21:04.405Z,99231.66
2023-05-08T03:23:36.571Z,99226.75
2023-05-08T03:26:05.972Z,99224.84
2023-05-08T03:28:36.813Z,99225.94
2023-05-08T03:31:07.711Z,99211.81
2023-05-08T03:33:39.387Z,99218.97
2023-05-08T03:36:08.138Z,99212.22
2023-05-08T03:38:37.350Z,99221.03
2023-05-08T03:41:06.251Z,99219.13
2023-05-08T03:43:37.717Z,99209.69
2023-05-08T03:46:09.935Z,99214.59
2023-05-08T03:48:39.840Z,99201.41
2023-05-08T03:51:08.260Z,99195.22
2023-05-08T03:53:36.737Z,99189.97
2023-05-08T03:56:05.407Z,99184.91
2023-05-08T03:58:36.800Z,99183.44
2023-05-08T04:01:13.309Z,99172.75
2023-05-08T04:04:19.006Z,99183.56
2023-05-08T04:07:01.101Z,99174.91
2023-05-08T04:09:36.740Z,99184.03
2023-05-08T04:12:23.065Z,99183.34
2023-05-08T04:14:56.897Z,99178.47
2023-05-08T04:17:42.276Z,99169.25
2023-05-08T04:20:16.562Z,99177.38
2023-05-08T04:22:47.921Z,99173.81
2023-05-08T04:25:19.102Z,99181.16
2023-05-08T04:27:49.055Z,99174.94
2023-05-08T04:30:17.926Z,99177.22
2023-05-08T04:32:47.066Z,99175.94
2023-05-08T04:35:16.154Z,99164.06
2023-05-08T04:37:44.981Z,99158.59
2023-05-08T04:40:13.665Z,99160.09
2023-05-08T04:42:43.965Z,99164.06
2023-05-08T04:45:13.041Z,99152.38
2023-05-08T04:47:41.597Z,99156.94
2023-05-08T04:50:10.633Z,99155.81
2023-05-08T04:52:39.236Z,99138.28
2023-05-08T04:55:08.266Z,99138.69
2023-05-08T04:57:37.081Z,99129.84
2023-05-08T05:00:07.198Z,99124.38
2023-05-08T05:02:35.641Z,99123.63
2023-05-08T05:05:04.360Z,99117.03
2023-05-08T05:07:32.928Z,99113.06
2023-05-08T05:10:01.986Z,99106.81
2023-05-08T05:12:30.421Z,99111.16
2023-05-08T05:14:58.841Z,99112.69
2023-05-08T05:17:27.343Z,99106.25
2023-05-08T05:19:55.771Z,99104.75
2023-05-08T05:22:25.056Z,99087.00
2023-05-08T05:24:53.595Z,99077.00
2023-05-08T05:27:22.061Z,99054.94
2023-05-08T05:29:50.498Z,99047.94
2023-05-08T05:32:19.001Z,99036.81
2023-05-08T05:34:47.406Z,99024.34
2023-05-08T05:37:15.959Z,99021.13
2023-05-08T05:39:44.352Z,99006.59
2023-05-08T05:42:12.810Z,99000.56
2023-05-08T05:44:41.288Z,98987.56
2023-05-08T05:47:11.727Z,98989.06
2023-05-08T05:49:44.175Z,98977.72
2023-05-08T05:52:12.711Z,98971.50
2023-05-08T05:54:42.445Z,98965.25
2023-05-08T05:57:10.900Z,98956.00
2023-05-08T05:59:39.498Z,98948.06
2023-05-08T06:02:11.231Z,98950.50
2023-05-08T06:04:39.860Z,98943.16
2023-05-08T06:07:08.292Z,98938.44
2023-05-08T06:09:37.535Z,98935.56
2023-05-08T06:12:05.991Z,98930.09
2023-05-08T06:14:34.436Z,98915.91
2023-05-08T06:17:02.884Z,98908.94
2023-05-08T06:19:31.421Z,98894.00
2023-05-08T06:21:59.805Z,98881.34
2023-05-08T06:24:28.840Z,98873.41
2023-05-08T06:26:57.492Z,98856.25
2023-05-08T06:29:25.941Z,98852.66
2023-05-08T06:31:54.375Z,98838.47
2023-05-08T06:34:22.792Z,98833.94
2023-05-08T06:36:51.322Z,98835.03
2023-05-08T06:39:19.705Z,98829.72
2023-05-08T06:41:51.298Z,98825.75
2023-05-08T06:44:19.673Z,98833.09
2023-05-08T06:46:48.299Z,98834.03
2023-05-08T06:49:17.226Z,98825.88
2023-05-08T06:51:45.638Z,98820.75
2023-05-08T06:54:14.172Z,98821.66
2023-05-08T06:56:42.612Z,98815.78
2023-05-08T06:59:11.136Z,98815.75
2023-05-08T07:01:39.604Z,98801.13
2023-05-08T07:04:08.099Z,98803.69
2023-05-08T07:06:36.648Z,98805.13
2023-05-08T07:09:05.170Z,98802.78
2023-05-08T07:11:33.642Z,98796.69
2023-05-08T07:14:02.045Z,98794.34
2023-05-08T07:16:30.508Z,98788.25
2023-05-08T07:18:58.952Z,98797.69
2023-05-08T07:21:27.486Z,98799.84
2023-05-08T07:23:55.944Z,98802.34
2023-05-08T07:26:24.444Z,98795.16
2023-05-08T07:28:55.221Z,98796.91
2023-05-08T07:31:23.670Z,98803.72
2023-05-08T07:33:52.148Z,98802.78
2023-05-08T07:36:20.579Z,98801.69
2023-05-08T07:38:49.049Z,98805.13
2023-05-08T07:41:17.511Z,98806.03
2023-05-08T07:43:46.222Z,98812.28
2023-05-08T07:46:19.119Z,98805.78
2023-05-08T07:48:47.623Z,98787.00
2023-05-08T07:51:16.856Z,98776.06
2023-05-08T07:53:45.343Z,98768.56
2023-05-08T07:56:13.720Z,98762.97
2023-05-08T07:58:43.559Z,98766.88
2023-05-08T08:01:12.037Z,98765.16
2023-05-08T08:03:40.523Z,98763.56
2023-05-08T08:06:09.078Z,98755.38
2023-05-08T08:08:37.556Z,98738.59
2023-05-08T08:11:06.645Z,98736.16
2023-05-08T08:13:35.226Z,98728.06
2023-05-08T08:16:05.200Z,98718.63
2023-05-08T08:18:37.752Z,98698.84
2023-05-08T08:21:09.438Z,98702.69
2023-05-08T08:23:38.066Z,98702.16
2023-05-08T08:26:06.598Z,98690.16
2023-05-08T08:28:35.212Z,98683.25
2023-05-08T08:31:03.696Z,98667.97
2023-05-08T08:33:32.663Z,98666.31
2023-05-08T08:36:01.058Z,98664.63
2023-05-08T08:38:29.755Z,98661.97
2023-05-08T08:40:58.215Z,98654.97
2023-05-08T08:43:26.689Z,98650.78
2023-05-08T08:45:55.131Z,98647.94
2023-05-08T08:48:29.753Z,98647.94
2023-05-08T08:51:04.744Z,98636.25
2023-05-08T08:53:39.126Z,98626.50
2023-05-08T08:56:10.699Z,98618.03
2023-05-08T08:58:52.109Z,98616.63
2023-05-08T09:01:23.139Z,98607.28
2023-05-08T09:03:52.330Z,98611.53
2023-05-08T09:06:21.592Z,98615.94
2023-05-08T09:08:50.566Z,98607.50
2023-05-08T09:11:18.963Z,98616.06
2023-05-08T09:13:47.483Z,98619.88
2023-05-08T09:16:15.955Z,98615.38
2023-05-08T09:18:44.405Z,98627.47
2023-05-08T09:21:13.016Z,98630.88
2023-05-08T09:24:02.449Z,98637.88
2023-05-08T09:26:42.143Z,98645.81
2023-05-08T09:29:23.289Z,98649.56
2023-05-08T09:31:54.265Z,98650.59
2023-05-08T09:34:25.881Z,98653.97
2023-05-08T09:36:54.922Z,98668.50
2023-05-08T09:39:25.908Z,98664.91
2023-05-08T09:42:02.261Z,98668.91
2023-05-08T09:44:44.574Z,98671.03
2023-05-08T09:47:17.552Z,98674.84
2023-05-08T09:50:00.650Z,98668.50
2023-05-08T09:52:30.755Z,98665.13
2023-05-08T09:55:04.841Z,98659.69
2023-05-08T09:57:35.584Z,98658.00
2023-05-08T10:00:07.140Z,98662.59
2023-05-08T10:02:36.860Z,98671.50
2023-05-08T10:05:36.563Z,98663.41
2023-05-08T10:08:24.978Z,98665.13
2023-05-08T10:10:54.207Z,98669.50
2023-05-08T10:13:22.652Z,98667.66
2023-05-08T10:15:55.986Z,98668.03
2023-05-08T10:18:31.211Z,98671.25
2023-05-08T10:21:06.478Z,98671.66
2023-05-08T10:23:36.461Z,98674.31
2023-05-08T10:26:13.334Z,98689.81
2023-05-08T10:28:58.893Z,98701.72
2023-05-08T10:31:30.937Z,98701.53
2023-05-08T10:34:02.967Z,98695.69
2023-05-08T10:36:33.453Z,98698.16
2023-05-08T10:39:01.969Z,98701.38
2023-05-08T10:41:30.623Z,98696.09
2023-05-08T10:44:02.575Z,98712.16
2023-05-08T10:46:56.950Z,98712.75
2023-05-08T10:49:43.617Z,98716.72
2023-05-08T10:52:37.044Z,98721.44
2023-05-08T10:55:25.079Z,98724.84
2023-05-08T10:58:07.947Z,98728.06
2023-05-08T11:00:54.906Z,98736.19
2023-05-08T11:03:32.009Z,98739.41
2023-05-08T11:06:02.395Z,98749.00
2023-05-08T11:08:32.367Z,98753.72
2023-05-08T11:11:01.076Z,98756.97
2023-05-08T11:13:54.872Z,98758.09
2023-05-08T11:17:06.534Z,98761.88
2023-05-08T11:19:35.607Z,98764.13
2023-05-08T11:22:14.498Z,98772.25
2023-05-08T11:24:50.263Z,98781.69
2023-05-08T11:27:19.055Z,98786.25
2023-05-08T11:30:25.301Z,98779.47
2023-05-08T11:33:05.842Z,98775.31
2023-05-08T11:35:46.560Z,98781.91
2023-05-08T11:38:34.339Z,98791.31
2023-05-08T11:41:05.704Z,98792.81
2023-05-08T11:43:34.315Z,98797.91
2023-05-08T11:46:08.207Z,98803.75
2023-05-08T11:48:37.457Z,98813.72
2023-05-08T11:51:06.431Z,98809.75
2023-05-08T11:53:37.402Z,98812.94
2023-05-08T11:56:06.160Z,98818.22
2023-05-08T11:58:34.557Z,98827.06
2023-05-08T12:01:02.998Z,98819.72
2023-05-08T12:03:31.707Z,98820.63
2023-05-08T12:06:01.226Z,98823.81
2023-05-08T12:08:29.923Z,98828.53
2023-05-08T12:10:59.436Z,98831.16
2023-05-08T12:13:30.127Z,98820.94
2023-05-08T12:16:01.196Z,98824.16
2023-05-08T12:18:31.773Z,98825.81
2023-05-08T12:21:03.290Z,98821.88
2023-05-08T12:23:32.055Z,98824.28
2023-05-08T12:26:02.236Z,98825.38
2023-05-08T12:28:35.249Z,98826.50
2023-05-08T12:31:03.834Z,98826.88
2023-05-08T12:33:32.695Z,98837.22
2023-05-08T12:36:01.868Z,98843.22
2023-05-08T12:38:31.052Z,98841.31
2023-05-08T12:41:00.344Z,98856.00
2023-05-08T12:43:38.459Z,98856.34
2023-05-08T12:46:07.265Z,98869.50
2023-05-08T12:48:35.668Z,98861.59
2023-05-08T12:51:06.055Z,98870.63
2023-05-08T12:53:35.107Z,98876.25
2023-05-08T12:56:05.910Z,98883.03
2023-05-08T12:58:35.934Z,98889.22
2023-05-08T13:01:14.331Z,98901.81
2023-05-08T13:03:43.055Z,98902.38
2023-05-08T13:06:22.452Z,98910.09
2023-05-08T13:08:58.694Z,98908.56
2023-05-08T13:11:32.420Z,98917.56
2023-05-08T13:14:00.977Z,98914.56
2023-05-08T13:16:29.528Z,98914.56
2023-05-08T13:18:57.928Z,98915.88
2023-05-08T13:21:27.840Z,98921.31
2023-05-08T13:23:57.946Z,98917.72
2023-05-08T13:26:27.258Z,98913.19
2023-05-08T13:28:56.583Z,98910.94
2023-05-08T13:31:27.435Z,98905.06
2023-05-08T13:33:55.891Z,98908.44
2023-05-08T13:36:25.457Z,98904.66
2023-05-08T13:38:55.783Z,98908.78
2023-05-08T13:41:24.383Z,98909.34
2023-05-08T13:43:52.741Z,98924.00
2023-05-08T13:46:21.377Z,98929.44
2023-05-08T13:48:49.808Z,98939.78
2023-05-08T13:51:18.477Z,98938.06
2023-05-08T13:53:46.993Z,98947.06
2023-05-08T13:56:15.732Z,98955.53
2023-05-08T13:58:44.236Z,98950.44
2023-05-08T14:01:25.614Z,98954.78
2023-05-08T14:03:56.466Z,98954.78
2023-05-08T14:06:25.156Z,98966.81
2023-05-08T14:08:55.488Z,98962.69
2023-05-08T14:11:25.526Z,98952.72
2023-05-08T14:13:54.331Z,98948.38
2023-05-08T14:16:23.014Z,98946.31
2023-05-08T14:18:51.487Z,98941.97
2023-05-08T14:21:20.286Z,98954.56
2023-05-08T14:23:48.692Z,98946.47
2023-05-08T14:26:17.127Z,98951.91
2023-05-08T14:28:45.566Z,98949.59
2023-05-08T14:31:14.742Z,98964.25
2023-05-08T14:33:43.182Z,98960.47
2023-05-08T14:36:11.903Z,98970.25
2023-05-08T14:38:40.296Z,98965.16
2023-05-08T14:41:08.704Z,98968.53
2023-05-08T14:43:37.111Z,98961.91
2023-05-08T14:46:05.587Z,98961.72
2023-05-08T14:48:33.997Z,98969.97
2023-05-08T14:51:02.436Z,98967.47
2023-05-08T14:53:30.968Z,98969.31
2023-05-08T14:56:01.664Z,98979.84
2023-05-08T14:58:30.426Z,98987.34
2023-05-08T15:00:58.943Z,98986.38
2023-05-08T15:03:27.486Z,98998.19
2023-05-08T15:05:56.185Z,99000.78
2023-05-08T15:08:24.715Z,99003.41
2023-05-08T15:11:01.734Z,98988.53
2023-05-08T15:13:30.245Z,98982.69
2023-05-08T15:15:59.431Z,98984.00
2023-05-08T15:18:29.512Z,98983.78
2023-05-08T15:20:58.990Z,98986.94
2023-05-08T15:23:27.978Z,98977.53
2023-05-08T15:25:56.477Z,98977.88
2023-05-08T15:28:24.936Z,98978.41
2023-05-08T15:30:53.351Z,98975.38
2023-05-08T15:33:21.765Z,98981.34
2023-05-08T15:35:50.406Z,98978.31
2023-05-08T15:38:18.885Z,98978.09
2023-05-08T15:40:47.260Z,98971.50
2023-05-08T15:43:15.686Z,98973.13
2023-05-08T15:45:44.101Z,98970.88
2023-05-08T15:48:12.733Z,98974.00
2023-05-08T15:50:41.804Z,98984.09
2023-05-08T15:53:10.262Z,98997.97
2023-05-08T15:55:39.666Z,99002.63
2023-05-08T15:58:08.033Z,99005.94
2023-05-08T16:00:44.114Z,99010.63
2023-05-08T16:03:14.291Z,99009.09
2023-05-08T16:05:42.871Z,99018.09
2023-05-08T16:08:13.811Z,99017.34
2023-05-08T16:10:43.182Z,99018.63
2023-05-08T16:13:11.697Z,99017.13
2023-05-08T16:15:40.207Z,99019.19
2023-05-08T16:18:08.997Z,99012.03
2023-05-08T16:20:37.437Z,99022.00
2023-05-08T16:23:05.827Z,99013.56
2023-05-08T16:25:34.385Z,99022.00
2023-05-08T16:28:03.002Z,99028.94
2023-05-08T16:30:31.756Z,99047.69
2023-05-08T16:33:01.100Z,99053.09
2023-05-08T16:35:30.511Z,99056.03
2023-05-08T16:37:59.050Z,99056.34
2023-05-08T16:40:27.514Z,99050.28
2023-05-08T16:42:55.913Z,99043.66
2023-05-08T16:45:24.405Z,99050.38
2023-05-08T16:47:52.862Z,99049.94
2023-05-08T16:50:21.394Z,99052.53
2023-05-08T16:52:49.789Z,99053.84
2023-05-08T16:55:18.245Z,99051.00
2023-05-08T16:57:46.625Z,99051.78
2023-05-08T17:00:15.702Z,99052.53
2023-05-08T17:02:44.196Z,99061.53
2023-05-08T17:05:13.188Z,99064.88
2023-05-08T17:07:42.080Z,99065.41
2023-05-08T17:10:12.045Z,99063.91
2023-05-08T17:12:40.596Z,99063.91
2023-05-08T17:15:09.496Z,99058.81
2023-05-08T17:17:38.002Z,99051.13
2023-05-08T17:20:07.068Z,99057.28
2023-05-08T17:22:35.501Z,99056.53
2023-05-08T17:25:03.907Z,99051.66
2023-05-08T17:27:32.327Z,99050.91
2023-05-08T17:30:00.892Z,99057.28
2023-05-08T17:32:29.524Z,99052.41
2023-05-08T17:34:58.691Z,99057.28
2023-05-08T17:37:27.086Z,99056.53
2023-05-08T17:39:55.476Z,99052.19
2023-05-08T17:42:23.858Z,99059.88
2023-05-08T17:44:52.228Z,99058.38
2023-05-08T17:47:20.648Z,99049.16
2023-05-08T17:49:49.116Z,99046.34
2023-05-08T17:52:17.557Z,99048.63
2023-05-08T17:54:45.957Z,99055.03
2023-05-08T17:57:14.569Z,99056.31
2023-05-08T17:59:43.009Z,99057.28
2023-05-08T18:02:11.539Z,99067.78
2023-05-08T18:04:39.936Z,99064.97
2023-05-08T18:07:08.663Z,99057.28
2023-05-08T18:09:37.079Z,99053.72
2023-05-08T18:12:05.678Z,99050.16
2023-05-08T18:14:34.514Z,99049.38
2023-05-08T18:17:02.946Z,99054.25
2023-05-08T18:19:31.372Z,99045.06
2023-05-08T18:21:59.752Z,99038.44
2023-05-08T18:24:28.125Z,99030.22
2023-05-08T18:26:56.861Z,99028.16
2023-05-08T18:29:26.580Z,99021.78
2023-05-08T18:31:54.991Z,99028.72
2023-05-08T18:34:23.434Z,99025.69
2023-05-08T18:36:51.881Z,99022.84
2023-05-08T18:39:20.294Z,99025.69
2023-05-08T18:41:48.708Z,99014.41
2023-05-08T18:44:17.905Z,99015.94
2023-05-08T18:46:46.423Z,99007.47
2023-05-08T18:49:14.833Z,99005.44
2023-05-08T18:51:43.298Z,99016.69
2023-05-08T18:54:11.787Z,99009.00
2023-05-08T18:56:40.205Z,98996.22
2023-05-08T18:59:09.142Z,98998.28
2023-05-08T19:01:37.634Z,99009.00
2023-05-08T19:04:06.321Z,99012.34
2023-05-08T19:06:34.788Z,99012.34
2023-05-08T19:09:03.254Z,99006.50
2023-05-08T19:11:31.777Z,98997.53
2023-05-08T19:14:00.150Z,99002.41
2023-05-08T19:16:28.670Z,98993.41
2023-05-08T19:18:57.282Z,98994.16
2023-05-08T19:21:25.771Z,98992.66
2023-05-08T19:23:54.164Z,98988.06
2023-05-08T19:26:22.702Z,98994.78
2023-05-08T19:28:51.152Z,99000.16
2023-05-08T19:31:19.663Z,98997.34
2023-05-08T19:33:49.530Z,99007.63
2023-05-08T19:36:19.337Z,99001.78
2023-05-08T19:38:47.707Z,99002.34
2023-05-08T19:41:16.193Z,99004.94
2023-05-08T19:43:44.586Z,99000.38
2023-05-08T19:46:13.090Z,99007.84
2023-05-08T19:48:41.531Z,99018.88
2023-05-08T19:51:10.682Z,99016.59
2023-05-08T19:53:40.727Z,99010.00
2023-05-08T19:56:09.223Z,99013.34
2023-05-08T19:58:37.642Z,99021.00
2023-05-08T20:01:06.240Z,99011.81
2023-05-08T20:03:34.783Z,99033.06
2023-05-08T20:06:03.328Z,99019.50
2023-05-08T20:08:31.879Z,99018.72
2023-05-08T20:11:03.364Z,99023.59
2023-05-08T20:13:31.757Z,99036.91
2023-05-08T20:16:00.261Z,99026.19
2023-05-08T20:18:28.742Z,99026.72
2023-05-08T20:20:57.142Z,99010.38
2023-05-08T20:23:25.539Z,99018.06
2023-05-08T20:25:55.209Z,99021.66
2023-05-08T20:28:26.833Z,99025.75
2023-05-08T20:30:55.322Z,99024.25
2023-05-08T20:33:23.832Z,99029.09
2023-05-08T20:35:53.877Z,99021.19
2023-05-08T20:38:22.711Z,99037.31
2023-05-08T20:40:51.278Z,99032.22
2023-05-08T20:43:20.408Z,99037.09
2023-05-08T20:45:50.136Z,99032.78
2023-05-08T20:48:18.606Z,99031.25
2023-05-08T20:50:49.586Z,99035.38
2023-05-08T20:53:18.071Z,99033.31
2023-05-08T20:55:46.575Z,99029.75
2023-05-08T20:58:14.997Z,99026.16
2023-05-08T21:00:43.425Z,99028.44
2023-05-08T21:03:11.910Z,99032.78
2023-05-08T21:05:40.278Z,99034.28
2023-05-08T21:08:09.714Z,99033.00
2023-05-08T21:10:38.155Z,99041.44
2023-05-08T21:13:06.616Z,99040.69
2023-05-08T21:15:36.003Z,99044.03
2023-05-08T21:18:04.662Z,99053.22
2023-05-08T21:20:35.125Z,99039.91
2023-05-08T21:23:03.530Z,99037.09
2023-05-08T21:25:32.056Z,99038.63
2023-05-08T21:28:00.521Z,99039.16
2023-05-08T21:30:28.955Z,99044.78
2023-05-08T21:32:57.503Z,99041.22
2023-05-08T21:35:25.953Z,99054.53
2023-05-08T21:37:54.800Z,99053.75
2023-05-08T21:40:23.995Z,99049.44
2023-05-08T21:42:52.389Z,99040.22
2023-05-08T21:45:20.841Z,99040.22
2023-05-08T21:47:49.298Z,99042.06
2023-05-08T21:50:17.766Z,99041.84
2023-05-08T21:52:46.259Z,99040.84
2023-05-08T21:55:14.938Z,99043.44
2023-05-08T21:57:43.616Z,99042.69
2023-05-08T22:00:12.470Z,99033.25
2023-05-08T22:02:40.988Z,99043.72
2023-05-08T22:05:09.822Z,99040.69
2023-05-08T22:07:38.180Z,99044.28
2023-05-08T22:10:07.545Z,99048.38
2023-05-08T22:12:36.115Z,99048.38
2023-05-08T22:15:09.466Z,99056.06
2023-05-08T22:17:41.617Z,99057.13
2023-05-08T22:20:13.099Z,99063.50
2023-05-08T22:22:42.327Z,99075.28
2023-05-08T22:25:10.993Z,99069.66
2023-05-08T22:27:39.405Z,99077.34
2023-05-08T22:30:08.690Z,99075.06
2023-05-08T22:32:37.607Z,99084.25
2023-05-08T22:35:07.114Z,99080.69
2023-05-08T22:37:35.490Z,99079.94
2023-05-08T22:40:03.917Z,99091.94
2023-05-08T22:42:32.449Z,99097.56
2023-05-08T22:45:00.877Z,99095.50
2023-05-08T22:47:29.790Z,99094.97
2023-05-08T22:49:58.730Z,99086.31
2023-05-08T22:52:27.152Z,99099.84
2023-05-08T22:54:55.552Z,99106.00
2023-05-08T22:57:23.928Z,99114.44
2023-05-08T22:59:52.340Z,99108.81
2023-05-08T23:02:20.783Z,99115.94
2023-05-08T23:04:49.528Z,99118.00
2023-05-08T23:07:18.000Z,99124.91
2023-05-08T23:09:46.350Z,99129.78
2023-05-08T23:12:14.753Z,99136.16
2023-05-08T23:14:43.112Z,99136.94
2023-05-08T23:17:14.828Z,99132.06
2023-05-08T23:19:43.949Z,99145.38
2023-05-08T23:22:12.332Z,99148.94
2023-05-08T23:24:41.009Z,99156.84
2023-05-08T23:27:09.449Z,99159.66
2023-05-08T23:29:37.894Z,99158.91
2023-05-08T23:32:06.460Z,99168.84
2023-05-08T23:34:34.872Z,99169.59
2023-05-08T23:37:04.345Z,99171.88
2023-05-08T23:39:41.973Z,99172.13
2023-05-08T23:42:10.486Z,99178.19
2023-05-08T23:44:38.908Z,99191.22
2023-05-08T23:47:07.649Z,99193.50
2023-05-08T23:49:36.322Z,99200.34
2023-05-08T23:52:04.832Z,99203.06
2023-05-08T23:54:33.282Z,99207.09
2023-05-08T23:57:01.669Z,99214.69
2023-05-08T23:59:30.022Z,99215.94
